sensor_id;sensor_type;location;lat;lon;timestamp;temperature;humidity
19220;DHT22;9744;49.364;7.484;2024-03-02T00:00:51;4.00;99.90
19220;DHT22;9744;49.364;7.484;2024-03-02T00:03:19;4.00;99.90
19220;DHT22;9744;49.364;7.484;2024-03-02T00:05:50;4.00;99.90
19220;DHT22;9744;49.364;7.484;2024-03-02T00:08:24;4.10;99.90
19220;DHT22;9744;49.364;7.484;2024-03-02T00:11:00;4.10;99.90
19220;DHT22;9744;49.364;7.484;2024-03-02T00:13:29;4.10;99.90
19220;DHT22;9744;49.364;7.484;2024-03-02T00:15:57;4.10;99.90
19220;DHT22;9744;49.364;7.484;2024-03-02T00:18:27;4.10;99.90
19220;DHT22;9744;49.364;7.484;2024-03-02T00:20:57;4.20;99.90
19220;DHT22;9744;49.364;7.484;2024-03-02T00:23:29;4.00;99.90
19220;DHT22;9744;49.364;7.484;2024-03-02T00:25:59;4.20;99.90
19220;DHT22;9744;49.364;7.484;2024-03-02T00:28:27;4.10;99.90
19220;DHT22;9744;49.364;7.484;2024-03-02T00:31:01;4.10;99.90
19220;DHT22;9744;49.364;7.484;2024-03-02T00:33:31;4.10;99.90
19220;DHT22;9744;49.364;7.484;2024-03-02T00:36:00;4.10;99.90
19220;DHT22;9744;49.364;7.484;2024-03-02T00:38:27;4.10;99.90
19220;DHT22;9744;49.364;7.484;2024-03-02T00:40:58;4.10;99.90
19220;DHT22;9744;49.364;7.484;2024-03-02T00:43:47;4.00;99.90
19220;DHT22;9744;49.364;7.484;2024-03-02T00:46:17;4.10;99.90
19220;DHT22;9744;49.364;7.484;2024-03-02T00:48:51;3.10;99.90
19220;DHT22;9744;49.364;7.484;2024-03-02T00:51:21;3.90;99.90
19220;DHT22;9744;49.364;7.484;2024-03-02T00:53:48;3.90;99.90
19220;DHT22;9744;49.364;7.484;2024-03-02T00:56:18;3.80;99.90
19220;DHT22;9744;49.364;7.484;2024-03-02T00:58:46;3.80;99.90
19220;DHT22;9744;49.364;7.484;2024-03-02T01:01:13;3.90;99.90
19220;DHT22;9744;49.364;7.484;2024-03-02T01:03:42;3.80;99.90
19220;DHT22;9744;49.364;7.484;2024-03-02T01:06:09;3.70;99.90
19220;DHT22;9744;49.364;7.484;2024-03-02T01:08:37;3.80;99.90
19220;DHT22;9744;49.364;7.484;2024-03-02T01:11:04;3.80;99.90
19220;DHT22;9744;49.364;7.484;2024-03-02T01:13:33;3.80;99.90
19220;DHT22;9744;49.364;7.484;2024-03-02T01:16:04;3.80;99.90
19220;DHT22;9744;49.364;7.484;2024-03-02T01:18:32;3.80;99.90
19220;DHT22;9744;49.364;7.484;2024-03-02T01:20:59;3.70;99.90
19220;DHT22;9744;49.364;7.484;2024-03-02T01:23:27;3.80;99.90
19220;DHT22;9744;49.364;7.484;2024-03-02T01:25:55;3.70;99.90
19220;DHT22;9744;49.364;7.484;2024-03-02T01:28:22;3.70;99.90
19220;DHT22;9744;49.364;7.484;2024-03-02T01:30:50;3.70;99.90
19220;DHT22;9744;49.364;7.484;2024-03-02T01:33:18;3.70;99.90
19220;DHT22;9744;49.364;7.484;2024-03-02T01:35:47;3.70;99.90
19220;DHT22;9744;49.364;7.484;2024-03-02T01:38:14;3.70;99.90
19220;DHT22;9744;49.364;7.484;2024-03-02T01:40:42;3.70;99.90
19220;DHT22;9744;49.364;7.484;2024-03-02T01:43:10;3.70;99.90
19220;DHT22;9744;49.364;7.484;2024-03-02T01:45:37;3.80;99.90
19220;DHT22;9744;49.364;7.484;2024-03-02T01:48:07;3.70;99.90
19220;DHT22;9744;49.364;7.484;2024-03-02T01:50:34;3.80;99.90
19220;DHT22;9744;49.364;7.484;2024-03-02T01:53:02;3.80;99.90
19220;DHT22;9744;49.364;7.484;2024-03-02T01:55:29;3.80;99.90
19220;DHT22;9744;49.364;7.484;2024-03-02T01:57:57;3.80;99.90
19220;DHT22;9744;49.364;7.484;2024-03-02T02:00:25;3.80;99.90
19220;DHT22;9744;49.364;7.484;2024-03-02T02:02:53;3.90;99.90
19220;DHT22;9744;49.364;7.484;2024-03-02T02:05:22;3.90;99.90
19220;DHT22;9744;49.364;7.484;2024-03-02T02:07:49;3.90;99.90
19220;DHT22;9744;49.364;7.484;2024-03-02T02:10:17;3.80;99.90
19220;DHT22;9744;49.364;7.484;2024-03-02T02:12:45;3.90;99.90
19220;DHT22;9744;49.364;7.484;2024-03-02T02:15:23;3.40;99.90
19220;DHT22;9744;49.364;7.484;2024-03-02T02:17:51;3.90;99.90
19220;DHT22;9744;49.364;7.484;2024-03-02T02:20:19;3.70;99.90
19220;DHT22;9744;49.364;7.484;2024-03-02T02:22:56;3.90;99.90
19220;DHT22;9744;49.364;7.484;2024-03-02T02:25:24;4.00;99.90
19220;DHT22;9744;49.364;7.484;2024-03-02T02:27:53;3.90;99.90
19220;DHT22;9744;49.364;7.484;2024-03-02T02:30:23;3.90;99.90
19220;DHT22;9744;49.364;7.484;2024-03-02T02:32:51;3.90;99.90
19220;DHT22;9744;49.364;7.484;2024-03-02T02:35:18;3.90;99.90
19220;DHT22;9744;49.364;7.484;2024-03-02T02:37:47;3.90;99.90
19220;DHT22;9744;49.364;7.484;2024-03-02T02:40:17;3.90;99.90
19220;DHT22;9744;49.364;7.484;2024-03-02T02:42:45;3.90;99.90
19220;DHT22;9744;49.364;7.484;2024-03-02T02:45:13;3.80;99.90
19220;DHT22;9744;49.364;7.484;2024-03-02T02:47:41;3.80;99.90
19220;DHT22;9744;49.364;7.484;2024-03-02T02:50:10;3.70;99.90
19220;DHT22;9744;49.364;7.484;2024-03-02T02:52:39;3.80;99.90
19220;DHT22;9744;49.364;7.484;2024-03-02T02:55:08;3.90;99.90
19220;DHT22;9744;49.364;7.484;2024-03-02T02:57:38;4.20;99.90
19220;DHT22;9744;49.364;7.484;2024-03-02T03:00:08;3.80;99.90
19220;DHT22;9744;49.364;7.484;2024-03-02T03:02:40;3.40;99.90
19220;DHT22;9744;49.364;7.484;2024-03-02T03:05:09;3.70;99.90
19220;DHT22;9744;49.364;7.484;2024-03-02T03:07:37;3.80;99.90
19220;DHT22;9744;49.364;7.484;2024-03-02T03:10:06;3.90;99.90
19220;DHT22;9744;49.364;7.484;2024-03-02T03:12:34;3.70;99.90
19220;DHT22;9744;49.364;7.484;2024-03-02T03:15:03;3.70;99.90
19220;DHT22;9744;49.364;7.484;2024-03-02T03:17:32;3.70;99.90
19220;DHT22;9744;49.364;7.484;2024-03-02T03:20:00;3.70;99.90
19220;DHT22;9744;49.364;7.484;2024-03-02T03:22:28;3.70;99.90
19220;DHT22;9744;49.364;7.484;2024-03-02T03:24:56;3.80;99.90
19220;DHT22;9744;49.364;7.484;2024-03-02T03:27:23;3.80;99.90
19220;DHT22;9744;49.364;7.484;2024-03-02T03:29:51;3.80;99.90
19220;DHT22;9744;49.364;7.484;2024-03-02T03:32:19;3.90;99.90
19220;DHT22;9744;49.364;7.484;2024-03-02T03:34:50;3.90;99.90
19220;DHT22;9744;49.364;7.484;2024-03-02T03:37:17;3.90;99.90
19220;DHT22;9744;49.364;7.484;2024-03-02T03:39:47;4.00;99.90
19220;DHT22;9744;49.364;7.484;2024-03-02T03:42:14;4.00;99.90
19220;DHT22;9744;49.364;7.484;2024-03-02T03:44:42;4.00;99.90
19220;DHT22;9744;49.364;7.484;2024-03-02T03:47:09;4.00;99.90
19220;DHT22;9744;49.364;7.484;2024-03-02T03:49:38;3.90;99.90
19220;DHT22;9744;49.364;7.484;2024-03-02T03:52:06;4.00;99.90
19220;DHT22;9744;49.364;7.484;2024-03-02T03:54:33;4.00;99.90
19220;DHT22;9744;49.364;7.484;2024-03-02T03:57:05;4.00;99.90
19220;DHT22;9744;49.364;7.484;2024-03-02T03:59:32;4.00;99.90
19220;DHT22;9744;49.364;7.484;2024-03-02T04:02:00;4.00;99.90
19220;DHT22;9744;49.364;7.484;2024-03-02T04:04:28;4.00;99.90
19220;DHT22;9744;49.364;7.484;2024-03-02T04:06:59;4.00;99.90
19220;DHT22;9744;49.364;7.484;2024-03-02T04:09:26;3.90;99.90
19220;DHT22;9744;49.364;7.484;2024-03-02T04:11:53;4.00;99.90
19220;DHT22;9744;49.364;7.484;2024-03-02T04:14:22;4.00;99.90
19220;DHT22;9744;49.364;7.484;2024-03-02T04:16:49;4.00;99.90
19220;DHT22;9744;49.364;7.484;2024-03-02T04:19:17;4.00;99.90
19220;DHT22;9744;49.364;7.484;2024-03-02T04:21:46;4.00;99.90
19220;DHT22;9744;49.364;7.484;2024-03-02T04:24:15;4.10;99.90
19220;DHT22;9744;49.364;7.484;2024-03-02T04:26:43;4.20;99.90
19220;DHT22;9744;49.364;7.484;2024-03-02T04:29:12;4.10;99.90
19220;DHT22;9744;49.364;7.484;2024-03-02T04:31:39;4.10;99.90
19220;DHT22;9744;49.364;7.484;2024-03-02T04:34:06;4.20;99.90
19220;DHT22;9744;49.364;7.484;2024-03-02T04:36:35;4.30;99.90
19220;DHT22;9744;49.364;7.484;2024-03-02T04:39:02;4.20;99.90
19220;DHT22;9744;49.364;7.484;2024-03-02T04:41:32;4.20;99.90
19220;DHT22;9744;49.364;7.484;2024-03-02T04:43:59;4.20;99.90
19220;DHT22;9744;49.364;7.484;2024-03-02T04:46:27;4.30;99.90
19220;DHT22;9744;49.364;7.484;2024-03-02T04:48:54;4.30;99.90
19220;DHT22;9744;49.364;7.484;2024-03-02T04:51:23;4.30;99.90
19220;DHT22;9744;49.364;7.484;2024-03-02T04:53:50;4.30;99.90
19220;DHT22;9744;49.364;7.484;2024-03-02T04:56:17;4.30;99.90
19220;DHT22;9744;49.364;7.484;2024-03-02T04:59:04;4.30;99.90
19220;DHT22;9744;49.364;7.484;2024-03-02T05:01:32;4.40;99.90
19220;DHT22;9744;49.364;7.484;2024-03-02T05:03:59;4.40;99.90
19220;DHT22;9744;49.364;7.484;2024-03-02T05:06:27;4.40;99.90
19220;DHT22;9744;49.364;7.484;2024-03-02T05:08:55;4.40;99.90
19220;DHT22;9744;49.364;7.484;2024-03-02T05:11:26;4.40;99.90
19220;DHT22;9744;49.364;7.484;2024-03-02T05:14:18;4.50;99.90
19220;DHT22;9744;49.364;7.484;2024-03-02T05:16:46;4.40;99.90
19220;DHT22;9744;49.364;7.484;2024-03-02T05:19:15;4.50;99.90
19220;DHT22;9744;49.364;7.484;2024-03-02T05:21:42;4.50;99.90
19220;DHT22;9744;49.364;7.484;2024-03-02T05:24:10;4.50;99.90
19220;DHT22;9744;49.364;7.484;2024-03-02T05:26:37;4.50;99.90
19220;DHT22;9744;49.364;7.484;2024-03-02T05:29:06;4.60;99.90
19220;DHT22;9744;49.364;7.484;2024-03-02T05:31:35;4.70;99.90
19220;DHT22;9744;49.364;7.484;2024-03-02T05:34:02;4.80;99.90
19220;DHT22;9744;49.364;7.484;2024-03-02T05:36:31;4.80;99.90
19220;DHT22;9744;49.364;7.484;2024-03-02T05:38:58;4.70;99.90
19220;DHT22;9744;49.364;7.484;2024-03-02T05:41:25;4.80;99.90
19220;DHT22;9744;49.364;7.484;2024-03-02T05:43:55;4.70;99.90
19220;DHT22;9744;49.364;7.484;2024-03-02T05:46:24;4.70;99.90
19220;DHT22;9744;49.364;7.484;2024-03-02T05:48:53;4.80;99.90
19220;DHT22;9744;49.364;7.484;2024-03-02T05:51:28;4.80;99.90
19220;DHT22;9744;49.364;7.484;2024-03-02T05:53:55;4.80;99.90
19220;DHT22;9744;49.364;7.484;2024-03-02T05:56:22;4.80;99.90
19220;DHT22;9744;49.364;7.484;2024-03-02T05:58:49;4.80;99.90
19220;DHT22;9744;49.364;7.484;2024-03-02T06:01:33;4.80;99.90
19220;DHT22;9744;49.364;7.484;2024-03-02T06:04:01;4.80;99.90
19220;DHT22;9744;49.364;7.484;2024-03-02T06:06:41;4.80;99.90
19220;DHT22;9744;49.364;7.484;2024-03-02T06:09:09;4.80;99.90
19220;DHT22;9744;49.364;7.484;2024-03-02T06:11:39;4.70;99.90
19220;DHT22;9744;49.364;7.484;2024-03-02T06:14:08;4.80;99.90
19220;DHT22;9744;49.364;7.484;2024-03-02T06:16:35;4.80;99.90
19220;DHT22;9744;49.364;7.484;2024-03-02T06:19:04;4.80;99.90
19220;DHT22;9744;49.364;7.484;2024-03-02T06:21:31;4.70;99.90
19220;DHT22;9744;49.364;7.484;2024-03-02T06:23:59;4.70;99.90
19220;DHT22;9744;49.364;7.484;2024-03-02T06:26:27;4.70;99.90
19220;DHT22;9744;49.364;7.484;2024-03-02T06:28:55;4.70;99.90
19220;DHT22;9744;49.364;7.484;2024-03-02T06:31:22;4.70;99.90
19220;DHT22;9744;49.364;7.484;2024-03-02T06:33:50;4.70;99.90
19220;DHT22;9744;49.364;7.484;2024-03-02T06:36:18;4.70;99.90
19220;DHT22;9744;49.364;7.484;2024-03-02T06:38:44;4.70;99.90
19220;DHT22;9744;49.364;7.484;2024-03-02T06:41:27;4.80;99.90
19220;DHT22;9744;49.364;7.484;2024-03-02T06:43:54;4.80;99.90
19220;DHT22;9744;49.364;7.484;2024-03-02T06:46:25;4.80;99.90
19220;DHT22;9744;49.364;7.484;2024-03-02T06:48:53;4.80;99.90
19220;DHT22;9744;49.364;7.484;2024-03-02T06:51:22;4.90;99.90
19220;DHT22;9744;49.364;7.484;2024-03-02T06:53:49;5.00;99.90
19220;DHT22;9744;49.364;7.484;2024-03-02T06:56:17;5.00;99.90
19220;DHT22;9744;49.364;7.484;2024-03-02T06:58:46;5.10;99.90
19220;DHT22;9744;49.364;7.484;2024-03-02T07:01:16;5.10;99.90
19220;DHT22;9744;49.364;7.484;2024-03-02T07:03:43;5.00;99.90
19220;DHT22;9744;49.364;7.484;2024-03-02T07:06:11;5.10;99.90
19220;DHT22;9744;49.364;7.484;2024-03-02T07:08:42;5.10;99.90
19220;DHT22;9744;49.364;7.484;2024-03-02T07:11:10;5.20;99.90
19220;DHT22;9744;49.364;7.484;2024-03-02T07:13:37;5.20;99.90
19220;DHT22;9744;49.364;7.484;2024-03-02T07:16:05;5.20;99.90
19220;DHT22;9744;49.364;7.484;2024-03-02T07:18:53;5.20;99.90
19220;DHT22;9744;49.364;7.484;2024-03-02T07:21:22;5.20;99.90
19220;DHT22;9744;49.364;7.484;2024-03-02T07:23:51;5.20;99.90
19220;DHT22;9744;49.364;7.484;2024-03-02T07:26:23;5.20;99.90
19220;DHT22;9744;49.364;7.484;2024-03-02T07:28:51;5.20;99.90
19220;DHT22;9744;49.364;7.484;2024-03-02T07:31:19;5.30;99.90
19220;DHT22;9744;49.364;7.484;2024-03-02T07:33:46;5.30;99.90
19220;DHT22;9744;49.364;7.484;2024-03-02T07:36:14;5.30;99.90
19220;DHT22;9744;49.364;7.484;2024-03-02T07:39:17;5.30;99.90
19220;DHT22;9744;49.364;7.484;2024-03-02T07:41:45;5.30;99.90
19220;DHT22;9744;49.364;7.484;2024-03-02T07:44:13;5.40;99.90
19220;DHT22;9744;49.364;7.484;2024-03-02T07:46:42;5.40;99.90
19220;DHT22;9744;49.364;7.484;2024-03-02T07:49:09;5.50;99.90
19220;DHT22;9744;49.364;7.484;2024-03-02T07:51:45;5.50;99.90
19220;DHT22;9744;49.364;7.484;2024-03-02T07:54:12;5.60;99.90
19220;DHT22;9744;49.364;7.484;2024-03-02T07:56:41;5.60;99.90
19220;DHT22;9744;49.364;7.484;2024-03-02T07:59:08;5.70;99.90
19220;DHT22;9744;49.364;7.484;2024-03-02T08:01:36;5.70;99.90
19220;DHT22;9744;49.364;7.484;2024-03-02T08:04:30;5.70;99.90
19220;DHT22;9744;49.364;7.484;2024-03-02T08:07:10;5.70;99.90
19220;DHT22;9744;49.364;7.484;2024-03-02T08:09:37;5.70;99.90
19220;DHT22;9744;49.364;7.484;2024-03-02T08:12:07;5.70;99.90
19220;DHT22;9744;49.364;7.484;2024-03-02T08:14:36;5.80;99.90
19220;DHT22;9744;49.364;7.484;2024-03-02T08:17:03;5.80;99.90
19220;DHT22;9744;49.364;7.484;2024-03-02T08:19:35;5.90;99.90
19220;DHT22;9744;49.364;7.484;2024-03-02T08:22:03;5.90;99.90
19220;DHT22;9744;49.364;7.484;2024-03-02T08:24:31;5.90;99.90
19220;DHT22;9744;49.364;7.484;2024-03-02T08:26:58;6.00;99.90
19220;DHT22;9744;49.364;7.484;2024-03-02T08:29:27;6.10;99.90
19220;DHT22;9744;49.364;7.484;2024-03-02T08:31:54;6.10;99.90
19220;DHT22;9744;49.364;7.484;2024-03-02T08:34:21;6.20;99.90
19220;DHT22;9744;49.364;7.484;2024-03-02T08:36:49;6.20;99.90
19220;DHT22;9744;49.364;7.484;2024-03-02T08:39:16;6.30;99.90
19220;DHT22;9744;49.364;7.484;2024-03-02T08:41:46;6.40;99.90
19220;DHT22;9744;49.364;7.484;2024-03-02T08:44:14;6.40;99.90
19220;DHT22;9744;49.364;7.484;2024-03-02T08:46:44;6.50;99.90
19220;DHT22;9744;49.364;7.484;2024-03-02T08:49:24;6.50;99.90
19220;DHT22;9744;49.364;7.484;2024-03-02T08:51:57;6.50;99.90
19220;DHT22;9744;49.364;7.484;2024-03-02T08:54:24;6.60;99.90
19220;DHT22;9744;49.364;7.484;2024-03-02T08:56:51;6.70;99.90
19220;DHT22;9744;49.364;7.484;2024-03-02T08:59:20;6.70;99.90
19220;DHT22;9744;49.364;7.484;2024-03-02T09:01:55;6.80;99.90
19220;DHT22;9744;49.364;7.484;2024-03-02T09:04:23;6.80;99.90
19220;DHT22;9744;49.364;7.484;2024-03-02T09:06:50;6.90;99.90
19220;DHT22;9744;49.364;7.484;2024-03-02T09:09:18;6.90;99.90
19220;DHT22;9744;49.364;7.484;2024-03-02T09:11:46;6.90;99.90
19220;DHT22;9744;49.364;7.484;2024-03-02T09:14:14;7.00;99.90
19220;DHT22;9744;49.364;7.484;2024-03-02T09:16:43;7.00;99.90
19220;DHT22;9744;49.364;7.484;2024-03-02T09:19:12;7.00;99.90
19220;DHT22;9744;49.364;7.484;2024-03-02T09:21:43;7.00;99.90
19220;DHT22;9744;49.364;7.484;2024-03-02T09:24:11;7.10;99.90
19220;DHT22;9744;49.364;7.484;2024-03-02T09:26:40;7.20;99.90
19220;DHT22;9744;49.364;7.484;2024-03-02T09:29:07;7.20;99.90
19220;DHT22;9744;49.364;7.484;2024-03-02T09:31:39;7.30;99.90
19220;DHT22;9744;49.364;7.484;2024-03-02T09:34:07;7.30;99.90
19220;DHT22;9744;49.364;7.484;2024-03-02T09:36:35;7.40;99.90
19220;DHT22;9744;49.364;7.484;2024-03-02T09:39:02;7.40;99.90
19220;DHT22;9744;49.364;7.484;2024-03-02T09:41:31;7.50;99.90
19220;DHT22;9744;49.364;7.484;2024-03-02T09:44:00;7.60;99.90
19220;DHT22;9744;49.364;7.484;2024-03-02T09:46:27;7.60;99.90
19220;DHT22;9744;49.364;7.484;2024-03-02T09:48:54;7.70;99.90
19220;DHT22;9744;49.364;7.484;2024-03-02T09:51:23;7.70;99.90
19220;DHT22;9744;49.364;7.484;2024-03-02T09:53:52;7.80;99.90
19220;DHT22;9744;49.364;7.484;2024-03-02T09:56:21;7.80;99.90
19220;DHT22;9744;49.364;7.484;2024-03-02T09:58:48;7.90;99.90
19220;DHT22;9744;49.364;7.484;2024-03-02T10:01:18;8.00;99.90
19220;DHT22;9744;49.364;7.484;2024-03-02T10:03:49;8.10;99.90
19220;DHT22;9744;49.364;7.484;2024-03-02T10:06:21;8.10;99.90
19220;DHT22;9744;49.364;7.484;2024-03-02T10:08:49;8.10;99.90
19220;DHT22;9744;49.364;7.484;2024-03-02T10:11:28;8.20;99.90
19220;DHT22;9744;49.364;7.484;2024-03-02T10:14:04;8.20;99.90
19220;DHT22;9744;49.364;7.484;2024-03-02T10:16:38;8.30;99.90
19220;DHT22;9744;49.364;7.484;2024-03-02T10:19:15;8.30;99.90
19220;DHT22;9744;49.364;7.484;2024-03-02T10:21:43;8.40;99.90
19220;DHT22;9744;49.364;7.484;2024-03-02T10:24:11;8.40;99.90
19220;DHT22;9744;49.364;7.484;2024-03-02T10:26:40;8.60;99.90
19220;DHT22;9744;49.364;7.484;2024-03-02T10:29:08;8.80;99.90
19220;DHT22;9744;49.364;7.484;2024-03-02T10:31:37;9.00;99.90
19220;DHT22;9744;49.364;7.484;2024-03-02T10:34:05;9.30;99.90
19220;DHT22;9744;49.364;7.484;2024-03-02T10:36:33;9.70;99.90
19220;DHT22;9744;49.364;7.484;2024-03-02T10:39:02;9.80;99.90
19220;DHT22;9744;49.364;7.484;2024-03-02T10:41:32;10.00;99.90
19220;DHT22;9744;49.364;7.484;2024-03-02T10:44:02;10.30;99.90
19220;DHT22;9744;49.364;7.484;2024-03-02T10:46:31;10.40;99.90
19220;DHT22;9744;49.364;7.484;2024-03-02T10:48:58;10.60;99.90
19220;DHT22;9744;49.364;7.484;2024-03-02T10:51:26;10.90;99.90
19220;DHT22;9744;49.364;7.484;2024-03-02T10:53:55;11.00;99.90
19220;DHT22;9744;49.364;7.484;2024-03-02T10:56:28;11.10;99.90
19220;DHT22;9744;49.364;7.484;2024-03-02T10:59:02;11.20;99.90
19220;DHT22;9744;49.364;7.484;2024-03-02T11:01:31;11.50;99.90
19220;DHT22;9744;49.364;7.484;2024-03-02T11:03:59;11.80;99.90
19220;DHT22;9744;49.364;7.484;2024-03-02T11:06:29;12.00;99.90
19220;DHT22;9744;49.364;7.484;2024-03-02T11:09:03;12.30;99.90
19220;DHT22;9744;49.364;7.484;2024-03-02T11:11:37;12.50;99.90
19220;DHT22;9744;49.364;7.484;2024-03-02T11:14:13;12.90;99.90
19220;DHT22;9744;49.364;7.484;2024-03-02T11:16:40;12.90;99.90
19220;DHT22;9744;49.364;7.484;2024-03-02T11:19:10;13.00;99.90
19220;DHT22;9744;49.364;7.484;2024-03-02T11:21:38;13.00;99.90
19220;DHT22;9744;49.364;7.484;2024-03-02T11:24:28;13.10;99.90
19220;DHT22;9744;49.364;7.484;2024-03-02T11:26:59;13.20;99.90
19220;DHT22;9744;49.364;7.484;2024-03-02T11:29:46;13.30;99.90
19220;DHT22;9744;49.364;7.484;2024-03-02T11:32:16;13.60;99.90
19220;DHT22;9744;49.364;7.484;2024-03-02T11:34:46;13.80;99.90
19220;DHT22;9744;49.364;7.484;2024-03-02T11:37:14;13.70;99.90
19220;DHT22;9744;49.364;7.484;2024-03-02T11:39:43;13.80;99.90
19220;DHT22;9744;49.364;7.484;2024-03-02T11:42:11;13.70;99.90
19220;DHT22;9744;49.364;7.484;2024-03-02T11:44:42;13.60;99.90
19220;DHT22;9744;49.364;7.484;2024-03-02T11:47:12;13.50;99.90
19220;DHT22;9744;49.364;7.484;2024-03-02T11:49:42;13.40;99.90
19220;DHT22;9744;49.364;7.484;2024-03-02T11:52:11;13.50;99.90
19220;DHT22;9744;49.364;7.484;2024-03-02T11:54:45;13.60;99.90
19220;DHT22;9744;49.364;7.484;2024-03-02T11:57:18;13.60;99.90
19220;DHT22;9744;49.364;7.484;2024-03-02T11:59:45;13.70;99.90
19220;DHT22;9744;49.364;7.484;2024-03-02T12:02:17;13.80;99.90
19220;DHT22;9744;49.364;7.484;2024-03-02T12:04:45;14.00;99.90
19220;DHT22;9744;49.364;7.484;2024-03-02T12:07:18;14.10;99.90
19220;DHT22;9744;49.364;7.484;2024-03-02T12:09:59;14.40;99.90
19220;DHT22;9744;49.364;7.484;2024-03-02T12:12:27;14.60;99.90
19220;DHT22;9744;49.364;7.484;2024-03-02T12:14:54;14.80;99.90
19220;DHT22;9744;49.364;7.484;2024-03-02T12:17:23;15.00;99.90
19220;DHT22;9744;49.364;7.484;2024-03-02T12:19:52;15.00;99.90
19220;DHT22;9744;49.364;7.484;2024-03-02T12:22:21;15.20;99.90
19220;DHT22;9744;49.364;7.484;2024-03-02T12:24:49;15.40;99.90
19220;DHT22;9744;49.364;7.484;2024-03-02T12:27:16;15.50;99.90
19220;DHT22;9744;49.364;7.484;2024-03-02T12:29:44;15.60;99.90
19220;DHT22;9744;49.364;7.484;2024-03-02T12:32:11;15.70;99.90
19220;DHT22;9744;49.364;7.484;2024-03-02T12:34:40;15.80;99.90
19220;DHT22;9744;49.364;7.484;2024-03-02T12:37:07;15.90;99.90
19220;DHT22;9744;49.364;7.484;2024-03-02T12:39:34;16.10;99.90
19220;DHT22;9744;49.364;7.484;2024-03-02T12:42:03;16.20;99.90
19220;DHT22;9744;49.364;7.484;2024-03-02T12:44:30;16.10;99.90
19220;DHT22;9744;49.364;7.484;2024-03-02T12:46:57;16.30;99.90
19220;DHT22;9744;49.364;7.484;2024-03-02T12:49:25;16.40;99.90
19220;DHT22;9744;49.364;7.484;2024-03-02T12:51:55;16.50;99.90
19220;DHT22;9744;49.364;7.484;2024-03-02T12:54:23;16.10;99.90
19220;DHT22;9744;49.364;7.484;2024-03-02T12:56:51;15.60;99.90
19220;DHT22;9744;49.364;7.484;2024-03-02T12:59:20;15.30;99.90
19220;DHT22;9744;49.364;7.484;2024-03-02T13:01:52;15.20;99.90
19220;DHT22;9744;49.364;7.484;2024-03-02T13:04:22;14.90;99.90
19220;DHT22;9744;49.364;7.484;2024-03-02T13:06:50;14.60;99.90
19220;DHT22;9744;49.364;7.484;2024-03-02T13:09:20;14.40;99.90
19220;DHT22;9744;49.364;7.484;2024-03-02T13:11:48;14.10;99.90
19220;DHT22;9744;49.364;7.484;2024-03-02T13:14:16;13.90;99.90
19220;DHT22;9744;49.364;7.484;2024-03-02T13:16:44;13.80;99.90
19220;DHT22;9744;49.364;7.484;2024-03-02T13:19:12;13.70;99.90
19220;DHT22;9744;49.364;7.484;2024-03-02T13:21:40;13.40;99.90
19220;DHT22;9744;49.364;7.484;2024-03-02T13:24:08;13.20;99.90
19220;DHT22;9744;49.364;7.484;2024-03-02T13:26:39;13.10;99.90
19220;DHT22;9744;49.364;7.484;2024-03-02T13:29:07;13.00;99.90
19220;DHT22;9744;49.364;7.484;2024-03-02T13:31:34;12.80;99.90
19220;DHT22;9744;49.364;7.484;2024-03-02T13:34:02;12.70;99.90
19220;DHT22;9744;49.364;7.484;2024-03-02T13:36:29;12.70;99.90
19220;DHT22;9744;49.364;7.484;2024-03-02T13:38:56;12.70;99.90
19220;DHT22;9744;49.364;7.484;2024-03-02T13:41:24;12.60;99.90
19220;DHT22;9744;49.364;7.484;2024-03-02T13:43:53;12.60;99.90
19220;DHT22;9744;49.364;7.484;2024-03-02T13:46:20;12.60;99.90
19220;DHT22;9744;49.364;7.484;2024-03-02T13:48:47;12.60;99.90
19220;DHT22;9744;49.364;7.484;2024-03-02T13:51:15;12.60;99.90
19220;DHT22;9744;49.364;7.484;2024-03-02T13:53:42;12.50;99.90
19220;DHT22;9744;49.364;7.484;2024-03-02T13:56:09;12.40;99.90
19220;DHT22;9744;49.364;7.484;2024-03-02T13:58:36;12.30;99.90
19220;DHT22;9744;49.364;7.484;2024-03-02T14:01:05;12.40;99.90
19220;DHT22;9744;49.364;7.484;2024-03-02T14:03:32;12.40;99.90
19220;DHT22;9744;49.364;7.484;2024-03-02T14:06:00;12.40;99.90
19220;DHT22;9744;49.364;7.484;2024-03-02T14:08:27;12.30;99.90
19220;DHT22;9744;49.364;7.484;2024-03-02T14:10:54;12.40;99.90
19220;DHT22;9744;49.364;7.484;2024-03-02T14:13:26;12.40;99.90
19220;DHT22;9744;49.364;7.484;2024-03-02T14:15:56;12.30;99.90
19220;DHT22;9744;49.364;7.484;2024-03-02T14:18:25;12.30;99.90
19220;DHT22;9744;49.364;7.484;2024-03-02T14:20:52;12.20;99.90
19220;DHT22;9744;49.364;7.484;2024-03-02T14:23:20;12.20;99.90
19220;DHT22;9744;49.364;7.484;2024-03-02T14:25:56;12.10;99.90
19220;DHT22;9744;49.364;7.484;2024-03-02T14:28:25;12.10;99.90
19220;DHT22;9744;49.364;7.484;2024-03-02T14:30:52;12.10;99.90
19220;DHT22;9744;49.364;7.484;2024-03-02T14:33:21;12.10;99.90
19220;DHT22;9744;49.364;7.484;2024-03-02T14:35:50;12.20;99.90
19220;DHT22;9744;49.364;7.484;2024-03-02T14:38:17;12.10;99.90
19220;DHT22;9744;49.364;7.484;2024-03-02T14:40:45;12.20;99.90
19220;DHT22;9744;49.364;7.484;2024-03-02T14:43:12;12.20;99.90
19220;DHT22;9744;49.364;7.484;2024-03-02T14:45:39;12.20;99.90
19220;DHT22;9744;49.364;7.484;2024-03-02T14:48:07;12.10;99.90
19220;DHT22;9744;49.364;7.484;2024-03-02T14:50:34;12.00;99.90
19220;DHT22;9744;49.364;7.484;2024-03-02T14:53:03;12.00;99.90
19220;DHT22;9744;49.364;7.484;2024-03-02T14:55:32;12.00;99.90
19220;DHT22;9744;49.364;7.484;2024-03-02T14:58:00;12.00;99.90
19220;DHT22;9744;49.364;7.484;2024-03-02T15:00:28;12.00;99.90
19220;DHT22;9744;49.364;7.484;2024-03-02T15:02:55;12.00;99.90
19220;DHT22;9744;49.364;7.484;2024-03-02T15:05:22;12.10;99.90
19220;DHT22;9744;49.364;7.484;2024-03-02T15:07:52;12.20;99.90
19220;DHT22;9744;49.364;7.484;2024-03-02T15:10:21;12.30;99.90
19220;DHT22;9744;49.364;7.484;2024-03-02T15:12:48;12.30;99.90
19220;DHT22;9744;49.364;7.484;2024-03-02T15:15:16;12.30;99.90
19220;DHT22;9744;49.364;7.484;2024-03-02T15:17:43;12.20;99.90
19220;DHT22;9744;49.364;7.484;2024-03-02T15:20:11;12.20;99.90
19220;DHT22;9744;49.364;7.484;2024-03-02T15:22:38;12.20;99.90
19220;DHT22;9744;49.364;7.484;2024-03-02T15:25:06;12.10;99.90
19220;DHT22;9744;49.364;7.484;2024-03-02T15:27:34;12.00;99.90
19220;DHT22;9744;49.364;7.484;2024-03-02T15:30:03;12.00;99.90
19220;DHT22;9744;49.364;7.484;2024-03-02T15:32:30;11.90;99.90
19220;DHT22;9744;49.364;7.484;2024-03-02T15:34:57;11.90;99.90
19220;DHT22;9744;49.364;7.484;2024-03-02T15:37:24;11.90;99.90
19220;DHT22;9744;49.364;7.484;2024-03-02T15:39:52;11.80;99.90
19220;DHT22;9744;49.364;7.484;2024-03-02T15:42:19;11.80;99.90
19220;DHT22;9744;49.364;7.484;2024-03-02T15:44:51;11.80;99.90
19220;DHT22;9744;49.364;7.484;2024-03-02T15:47:19;11.90;99.90
19220;DHT22;9744;49.364;7.484;2024-03-02T15:49:46;11.90;99.90
19220;DHT22;9744;49.364;7.484;2024-03-02T15:52:14;11.90;99.90
19220;DHT22;9744;49.364;7.484;2024-03-02T15:54:44;11.90;99.90
19220;DHT22;9744;49.364;7.484;2024-03-02T15:57:11;11.80;99.90
19220;DHT22;9744;49.364;7.484;2024-03-02T15:59:39;11.90;99.90
19220;DHT22;9744;49.364;7.484;2024-03-02T16:02:08;11.90;99.90
19220;DHT22;9744;49.364;7.484;2024-03-02T16:04:35;11.90;99.90
19220;DHT22;9744;49.364;7.484;2024-03-02T16:07:02;11.90;99.90
19220;DHT22;9744;49.364;7.484;2024-03-02T16:09:30;11.90;99.90